sensor_id;sensor_type;location;lat;lon;timestamp;P1;durP1;ratioP1;P2;durP2;ratioP2
8538;SDS011;4307;53.868;11.680;2023-06-19T00:00:17;9.10;;;7.83;;
8538;SDS011;4307;53.868;11.680;2023-06-19T00:02:44;9.50;;;8.50;;
8538;SDS011;4307;53.868;11.680;2023-06-19T00:05:11;10.87;;;7.97;;
8538;SDS011;4307;53.868;11.680;2023-06-19T00:07:40;8.70;;;7.20;;
8538;SDS011;4307;53.868;11.680;2023-06-19T00:10:09;8.23;;;7.43;;
8538;SDS011;4307;53.868;11.680;2023-06-19T00:12:36;8.90;;;7.57;;
8538;SDS011;4307;53.868;11.680;2023-06-19T00:15:03;8.93;;;8.03;;
8538;SDS011;4307;53.868;11.680;2023-06-19T00:17:30;9.67;;;8.00;;
8538;SDS011;4307;53.868;11.680;2023-06-19T00:19:57;9.97;;;8.73;;
8538;SDS011;4307;53.868;11.680;2023-06-19T00:22:24;12.30;;;8.03;;
8538;SDS011;4307;53.868;11.680;2023-06-19T00:24:52;8.20;;;7.40;;
8538;SDS011;4307;53.868;11.680;2023-06-19T00:27:19;11.03;;;8.20;;
8538;SDS011;4307;53.868;11.680;2023-06-19T00:29:46;10.03;;;8.73;;
8538;SDS011;4307;53.868;11.680;2023-06-19T00:32:13;9.77;;;8.47;;
8538;SDS011;4307;53.868;11.680;2023-06-19T00:34:39;10.37;;;8.53;;
8538;SDS011;4307;53.868;11.680;2023-06-19T00:37:08;8.50;;;7.60;;
8538;SDS011;4307;53.868;11.680;2023-06-19T00:39:38;8.90;;;7.47;;
8538;SDS011;4307;53.868;11.680;2023-06-19T00:42:06;9.00;;;8.10;;
8538;SDS011;4307;53.868;11.680;2023-06-19T00:44:33;9.50;;;8.17;;
8538;SDS011;4307;53.868;11.680;2023-06-19T00:47:00;10.60;;;8.50;;
8538;SDS011;4307;53.868;11.680;2023-06-19T00:49:29;9.10;;;7.87;;
8538;SDS011;4307;53.868;11.680;2023-06-19T00:51:56;8.77;;;7.73;;
8538;SDS011;4307;53.868;11.680;2023-06-19T00:54:30;8.80;;;7.90;;
8538;SDS011;4307;53.868;11.680;2023-06-19T00:56:57;10.87;;;7.73;;
8538;SDS011;4307;53.868;11.680;2023-06-19T00:59:27;8.70;;;7.77;;
8538;SDS011;4307;53.868;11.680;2023-06-19T01:01:54;9.27;;;8.07;;
8538;SDS011;4307;53.868;11.680;2023-06-19T01:04:21;10.70;;;8.27;;
8538;SDS011;4307;53.868;11.680;2023-06-19T01:06:50;10.70;;;7.83;;
8538;SDS011;4307;53.868;11.680;2023-06-19T01:09:23;8.40;;;7.50;;
8538;SDS011;4307;53.868;11.680;2023-06-19T01:11:55;9.93;;;7.80;;
8538;SDS011;4307;53.868;11.680;2023-06-19T01:14:28;14.73;;;8.63;;
8538;SDS011;4307;53.868;11.680;2023-06-19T01:17:00;9.43;;;8.43;;
8538;SDS011;4307;53.868;11.680;2023-06-19T01:19:27;9.30;;;8.20;;
8538;SDS011;4307;53.868;11.680;2023-06-19T01:21:56;9.73;;;7.53;;
8538;SDS011;4307;53.868;11.680;2023-06-19T01:24:24;11.97;;;7.87;;
8538;SDS011;4307;53.868;11.680;2023-06-19T01:26:50;8.93;;;8.03;;
8538;SDS011;4307;53.868;11.680;2023-06-19T01:29:17;8.10;;;7.30;;
8538;SDS011;4307;53.868;11.680;2023-06-19T01:31:45;8.17;;;7.30;;
8538;SDS011;4307;53.868;11.680;2023-06-19T01:34:17;11.00;;;7.87;;
8538;SDS011;4307;53.868;11.680;2023-06-19T01:36:45;9.53;;;8.47;;
8538;SDS011;4307;53.868;11.680;2023-06-19T01:39:14;9.47;;;8.23;;
8538;SDS011;4307;53.868;11.680;2023-06-19T01:41:42;11.53;;;8.37;;
8538;SDS011;4307;53.868;11.680;2023-06-19T01:44:10;8.53;;;7.70;;
8538;SDS011;4307;53.868;11.680;2023-06-19T01:46:37;10.33;;;7.63;;
8538;SDS011;4307;53.868;11.680;2023-06-19T01:49:05;9.97;;;8.43;;
8538;SDS011;4307;53.868;11.680;2023-06-19T01:51:34;9.90;;;8.17;;
8538;SDS011;4307;53.868;11.680;2023-06-19T01:54:00;10.17;;;8.37;;
8538;SDS011;4307;53.868;11.680;2023-06-19T01:56:28;11.30;;;8.30;;
8538;SDS011;4307;53.868;11.680;2023-06-19T01:58:56;10.13;;;8.47;;
8538;SDS011;4307;53.868;11.680;2023-06-19T02:01:22;9.30;;;8.07;;
8538;SDS011;4307;53.868;11.680;2023-06-19T02:03:49;9.37;;;7.83;;
8538;SDS011;4307;53.868;11.680;2023-06-19T02:06:16;10.10;;;8.70;;
8538;SDS011;4307;53.868;11.680;2023-06-19T02:08:42;11.37;;;8.50;;
8538;SDS011;4307;53.868;11.680;2023-06-19T02:11:09;11.20;;;8.17;;
8538;SDS011;4307;53.868;11.680;2023-06-19T02:13:36;10.33;;;8.10;;
8538;SDS011;4307;53.868;11.680;2023-06-19T02:16:04;11.43;;;8.87;;
8538;SDS011;4307;53.868;11.680;2023-06-19T02:18:31;10.87;;;8.10;;
8538;SDS011;4307;53.868;11.680;2023-06-19T02:20:57;10.07;;;7.93;;
8538;SDS011;4307;53.868;11.680;2023-06-19T02:23:24;9.40;;;8.20;;
8538;SDS011;4307;53.868;11.680;2023-06-19T02:25:51;9.47;;;7.80;;
8538;SDS011;4307;53.868;11.680;2023-06-19T02:28:17;8.07;;;7.23;;
8538;SDS011;4307;53.868;11.680;2023-06-19T02:30:45;10.20;;;7.47;;
8538;SDS011;4307;53.868;11.680;2023-06-19T02:33:13;14.93;;;8.03;;
8538;SDS011;4307;53.868;11.680;2023-06-19T02:35:39;10.27;;;8.23;;
8538;SDS011;4307;53.868;11.680;2023-06-19T02:38:06;8.20;;;7.40;;
8538;SDS011;4307;53.868;11.680;2023-06-19T02:40:33;9.33;;;8.03;;
8538;SDS011;4307;53.868;11.680;2023-06-19T02:42:59;8.60;;;7.70;;
8538;SDS011;4307;53.868;11.680;2023-06-19T02:45:26;11.07;;;7.73;;
8538;SDS011;4307;53.868;11.680;2023-06-19T02:47:53;8.23;;;7.23;;
8538;SDS011;4307;53.868;11.680;2023-06-19T02:50:21;8.70;;;7.80;;
8538;SDS011;4307;53.868;11.680;2023-06-19T02:52:48;8.80;;;7.70;;
8538;SDS011;4307;53.868;11.680;2023-06-19T02:55:15;9.53;;;8.23;;
8538;SDS011;4307;53.868;11.680;2023-06-19T02:57:41;12.07;;;8.27;;
8538;SDS011;4307;53.868;11.680;2023-06-19T03:00:10;10.83;;;8.07;;
8538;SDS011;4307;53.868;11.680;2023-06-19T03:02:37;9.57;;;8.43;;
8538;SDS011;4307;53.868;11.680;2023-06-19T03:05:08;10.93;;;9.20;;
8538;SDS011;4307;53.868;11.680;2023-06-19T03:07:37;9.20;;;8.30;;
8538;SDS011;4307;53.868;11.680;2023-06-19T03:10:04;10.50;;;8.80;;
8538;SDS011;4307;53.868;11.680;2023-06-19T03:12:31;10.07;;;8.20;;
8538;SDS011;4307;53.868;11.680;2023-06-19T03:14:57;9.00;;;7.80;;
8538;SDS011;4307;53.868;11.680;2023-06-19T03:17:26;8.90;;;8.00;;
8538;SDS011;4307;53.868;11.680;2023-06-19T03:19:53;9.97;;;8.13;;
8538;SDS011;4307;53.868;11.680;2023-06-19T03:22:19;9.63;;;8.03;;
8538;SDS011;4307;53.868;11.680;2023-06-19T03:24:48;9.67;;;8.17;;
8538;SDS011;4307;53.868;11.680;2023-06-19T03:27:15;10.50;;;8.37;;
8538;SDS011;4307;53.868;11.680;2023-06-19T03:29:45;9.17;;;7.80;;
8538;SDS011;4307;53.868;11.680;2023-06-19T03:32:12;10.60;;;8.40;;
8538;SDS011;4307;53.868;11.680;2023-06-19T03:34:39;10.73;;;8.50;;
8538;SDS011;4307;53.868;11.680;2023-06-19T03:37:05;10.07;;;7.23;;
8538;SDS011;4307;53.868;11.680;2023-06-19T03:39:32;10.20;;;7.77;;
8538;SDS011;4307;53.868;11.680;2023-06-19T03:42:00;10.80;;;8.33;;
8538;SDS011;4307;53.868;11.680;2023-06-19T03:44:27;10.70;;;8.57;;
8538;SDS011;4307;53.868;11.680;2023-06-19T03:46:53;9.67;;;8.03;;
8538;SDS011;4307;53.868;11.680;2023-06-19T03:49:20;12.23;;;8.30;;
8538;SDS011;4307;53.868;11.680;2023-06-19T03:51:47;8.93;;;8.03;;
8538;SDS011;4307;53.868;11.680;2023-06-19T03:54:13;9.13;;;8.17;;
8538;SDS011;4307;53.868;11.680;2023-06-19T03:56:40;9.70;;;7.80;;
8538;SDS011;4307;53.868;11.680;2023-06-19T03:59:08;11.80;;;8.40;;
8538;SDS011;4307;53.868;11.680;2023-06-19T04:01:35;8.73;;;7.67;;
8538;SDS011;4307;53.868;11.680;2023-06-19T04:04:01;10.10;;;7.90;;
8538;SDS011;4307;53.868;11.680;2023-06-19T04:06:28;7.67;;;6.77;;
8538;SDS011;4307;53.868;11.680;2023-06-19T04:08:55;8.17;;;7.37;;
8538;SDS011;4307;53.868;11.680;2023-06-19T04:11:21;8.50;;;7.50;;
8538;SDS011;4307;53.868;11.680;2023-06-19T04:13:48;10.67;;;9.57;;
8538;SDS011;4307;53.868;11.680;2023-06-19T04:16:16;8.73;;;7.13;;
8538;SDS011;4307;53.868;11.680;2023-06-19T04:18:43;8.10;;;7.30;;
8538;SDS011;4307;53.868;11.680;2023-06-19T04:21:09;8.30;;;7.17;;
8538;SDS011;4307;53.868;11.680;2023-06-19T04:23:37;9.53;;;7.67;;
8538;SDS011;4307;53.868;11.680;2023-06-19T04:26:04;9.47;;;7.37;;
8538;SDS011;4307;53.868;11.680;2023-06-19T04:28:30;8.37;;;6.90;;
8538;SDS011;4307;53.868;11.680;2023-06-19T04:30:57;8.27;;;6.80;;
8538;SDS011;4307;53.868;11.680;2023-06-19T04:33:27;8.13;;;7.30;;
8538;SDS011;4307;53.868;11.680;2023-06-19T04:35:54;7.53;;;6.80;;
8538;SDS011;4307;53.868;11.680;2023-06-19T04:38:21;9.63;;;6.70;;
8538;SDS011;4307;53.868;11.680;2023-06-19T04:40:48;8.17;;;6.73;;
8538;SDS011;4307;53.868;11.680;2023-06-19T04:43:15;6.67;;;6.07;;
8538;SDS011;4307;53.868;11.680;2023-06-19T04:45:42;10.50;;;7.20;;
8538;SDS011;4307;53.868;11.680;2023-06-19T04:48:09;6.90;;;6.17;;
8538;SDS011;4307;53.868;11.680;2023-06-19T04:50:37;6.73;;;6.03;;
8538;SDS011;4307;53.868;11.680;2023-06-19T04:53:04;9.83;;;6.67;;
8538;SDS011;4307;53.868;11.680;2023-06-19T04:55:30;7.77;;;6.93;;
8538;SDS011;4307;53.868;11.680;2023-06-19T04:57:57;9.93;;;6.17;;
8538;SDS011;4307;53.868;11.680;2023-06-19T05:00:24;7.53;;;6.73;;
8538;SDS011;4307;53.868;11.680;2023-06-19T05:02:53;6.93;;;6.27;;
8538;SDS011;4307;53.868;11.680;2023-06-19T05:05:24;11.43;;;7.07;;
8538;SDS011;4307;53.868;11.680;2023-06-19T05:07:52;8.83;;;7.03;;
8538;SDS011;4307;53.868;11.680;2023-06-19T05:10:19;8.13;;;7.03;;
8538;SDS011;4307;53.868;11.680;2023-06-19T05:12:46;7.10;;;6.37;;
8538;SDS011;4307;53.868;11.680;2023-06-19T05:15:13;8.27;;;7.03;;
8538;SDS011;4307;53.868;11.680;2023-06-19T05:17:40;9.37;;;6.93;;
8538;SDS011;4307;53.868;11.680;2023-06-19T05:20:07;7.97;;;7.13;;
8538;SDS011;4307;53.868;11.680;2023-06-19T05:22:34;8.80;;;7.53;;
8538;SDS011;4307;53.868;11.680;2023-06-19T05:25:03;7.83;;;6.83;;
8538;SDS011;4307;53.868;11.680;2023-06-19T05:27:31;7.83;;;7.03;;
8538;SDS011;4307;53.868;11.680;2023-06-19T05:29:58;9.03;;;7.33;;
8538;SDS011;4307;53.868;11.680;2023-06-19T05:32:24;9.50;;;7.33;;
8538;SDS011;4307;53.868;11.680;2023-06-19T05:34:51;11.17;;;7.43;;
8538;SDS011;4307;53.868;11.680;2023-06-19T05:37:17;7.70;;;6.90;;
8538;SDS011;4307;53.868;11.680;2023-06-19T05:39:44;8.27;;;7.47;;
8538;SDS011;4307;53.868;11.680;2023-06-19T05:42:12;9.40;;;7.20;;
8538;SDS011;4307;53.868;11.680;2023-06-19T05:44:39;10.77;;;8.00;;
8538;SDS011;4307;53.868;11.680;2023-06-19T05:47:06;8.23;;;7.40;;
8538;SDS011;4307;53.868;11.680;2023-06-19T05:49:32;9.93;;;7.90;;
8538;SDS011;4307;53.868;11.680;2023-06-19T05:51:59;10.60;;;7.73;;
8538;SDS011;4307;53.868;11.680;2023-06-19T05:54:27;9.20;;;7.87;;
8538;SDS011;4307;53.868;11.680;2023-06-19T05:56:54;8.83;;;8.03;;
8538;SDS011;4307;53.868;11.680;2023-06-19T05:59:22;9.10;;;7.93;;
8538;SDS011;4307;53.868;11.680;2023-06-19T06:01:49;8.20;;;7.40;;
8538;SDS011;4307;53.868;11.680;2023-06-19T06:04:18;8.67;;;7.87;;
8538;SDS011;4307;53.868;11.680;2023-06-19T06:06:46;14.57;;;8.13;;
8538;SDS011;4307;53.868;11.680;2023-06-19T06:09:14;8.43;;;7.53;;
8538;SDS011;4307;53.868;11.680;2023-06-19T06:11:41;9.10;;;8.20;;
8538;SDS011;4307;53.868;11.680;2023-06-19T06:14:07;11.77;;;8.07;;
8538;SDS011;4307;53.868;11.680;2023-06-19T06:16:36;9.73;;;8.23;;
8538;SDS011;4307;53.868;11.680;2023-06-19T06:19:02;9.37;;;8.20;;
8538;SDS011;4307;53.868;11.680;2023-06-19T06:21:29;10.27;;;8.67;;
8538;SDS011;4307;53.868;11.680;2023-06-19T06:23:56;11.43;;;8.43;;
8538;SDS011;4307;53.868;11.680;2023-06-19T06:26:22;9.33;;;7.90;;
8538;SDS011;4307;53.868;11.680;2023-06-19T06:28:49;8.80;;;7.97;;
8538;SDS011;4307;53.868;11.680;2023-06-19T06:31:16;9.13;;;8.23;;
8538;SDS011;4307;53.868;11.680;2023-06-19T06:33:44;9.50;;;8.37;;
8538;SDS011;4307;53.868;11.680;2023-06-19T06:36:10;9.63;;;8.23;;
8538;SDS011;4307;53.868;11.680;2023-06-19T06:38:37;9.73;;;8.57;;
8538;SDS011;4307;53.868;11.680;2023-06-19T06:41:04;12.10;;;8.50;;
8538;SDS011;4307;53.868;11.680;2023-06-19T06:43:30;12.57;;;8.50;;
8538;SDS011;4307;53.868;11.680;2023-06-19T06:45:57;10.50;;;8.20;;
8538;SDS011;4307;53.868;11.680;2023-06-19T06:48:24;9.67;;;8.53;;
8538;SDS011;4307;53.868;11.680;2023-06-19T06:50:52;10.67;;;9.27;;
8538;SDS011;4307;53.868;11.680;2023-06-19T06:53:24;9.20;;;8.30;;
8538;SDS011;4307;53.868;11.680;2023-06-19T06:55:50;9.37;;;8.30;;
8538;SDS011;4307;53.868;11.680;2023-06-19T06:58:17;10.47;;;8.43;;
8538;SDS011;4307;53.868;11.680;2023-06-19T07:00:47;10.37;;;8.70;;
8538;SDS011;4307;53.868;11.680;2023-06-19T07:03:15;11.57;;;8.80;;
8538;SDS011;4307;53.868;11.680;2023-06-19T07:05:42;9.53;;;8.27;;
8538;SDS011;4307;53.868;11.680;2023-06-19T07:08:11;11.13;;;9.37;;
8538;SDS011;4307;53.868;11.680;2023-06-19T07:10:37;9.97;;;8.97;;
8538;SDS011;4307;53.868;11.680;2023-06-19T07:13:04;10.03;;;9.03;;
8538;SDS011;4307;53.868;11.680;2023-06-19T07:15:31;11.10;;;9.37;;
8538;SDS011;4307;53.868;11.680;2023-06-19T07:17:57;10.77;;;9.00;;
8538;SDS011;4307;53.868;11.680;2023-06-19T07:20:24;9.50;;;8.50;;
8538;SDS011;4307;53.868;11.680;2023-06-19T07:22:51;10.30;;;9.30;;
8538;SDS011;4307;53.868;11.680;2023-06-19T07:25:20;9.57;;;8.67;;
8538;SDS011;4307;53.868;11.680;2023-06-19T07:27:49;10.90;;;8.80;;
8538;SDS011;4307;53.868;11.680;2023-06-19T07:30:16;10.23;;;9.23;;
8538;SDS011;4307;53.868;11.680;2023-06-19T07:32:43;10.13;;;9.17;;
8538;SDS011;4307;53.868;11.680;2023-06-19T07:35:09;10.23;;;9.23;;
8538;SDS011;4307;53.868;11.680;2023-06-19T07:37:37;10.90;;;9.87;;
8538;SDS011;4307;53.868;11.680;2023-06-19T07:40:04;10.17;;;9.17;;
8538;SDS011;4307;53.868;11.680;2023-06-19T07:42:32;10.57;;;9.57;;
8538;SDS011;4307;53.868;11.680;2023-06-19T07:44:59;11.17;;;9.97;;
8538;SDS011;4307;53.868;11.680;2023-06-19T07:47:26;10.63;;;9.53;;
8538;SDS011;4307;53.868;11.680;2023-06-19T07:49:53;11.47;;;10.43;;
8538;SDS011;4307;53.868;11.680;2023-06-19T07:52:23;11.43;;;9.90;;
8538;SDS011;4307;53.868;11.680;2023-06-19T07:54:53;11.10;;;10.00;;
8538;SDS011;4307;53.868;11.680;2023-06-19T07:57:21;11.87;;;10.03;;
8538;SDS011;4307;53.868;11.680;2023-06-19T07:59:51;10.97;;;9.87;;
8538;SDS011;4307;53.868;11.680;2023-06-19T08:02:19;13.23;;;9.77;;
8538;SDS011;4307;53.868;11.680;2023-06-19T08:04:46;10.83;;;9.43;;
8538;SDS011;4307;53.868;11.680;2023-06-19T08:07:13;11.83;;;9.40;;
8538;SDS011;4307;53.868;11.680;2023-06-19T08:09:39;10.57;;;9.57;;
8538;SDS011;4307;53.868;11.680;2023-06-19T08:12:06;11.87;;;10.00;;
8538;SDS011;4307;53.868;11.680;2023-06-19T08:14:36;11.30;;;10.17;;
8538;SDS011;4307;53.868;11.680;2023-06-19T08:17:05;11.23;;;8.90;;
8538;SDS011;4307;53.868;11.680;2023-06-19T08:19:32;10.23;;;9.33;;
8538;SDS011;4307;53.868;11.680;2023-06-19T08:21:58;10.77;;;9.67;;
8538;SDS011;4307;53.868;11.680;2023-06-19T08:24:25;11.20;;;10.10;;
8538;SDS011;4307;53.868;11.680;2023-06-19T08:26:52;10.77;;;9.77;;
8538;SDS011;4307;53.868;11.680;2023-06-19T08:29:19;10.63;;;9.30;;
8538;SDS011;4307;53.868;11.680;2023-06-19T08:31:45;11.20;;;10.00;;
8538;SDS011;4307;53.868;11.680;2023-06-19T08:34:13;13.17;;;9.57;;
8538;SDS011;4307;53.868;11.680;2023-06-19T08:36:40;11.30;;;9.30;;
8538;SDS011;4307;53.868;11.680;2023-06-19T08:39:07;10.23;;;9.33;;
8538;SDS011;4307;53.868;11.680;2023-06-19T08:41:34;12.20;;;10.30;;
8538;SDS011;4307;53.868;11.680;2023-06-19T08:44:02;15.87;;;10.47;;
8538;SDS011;4307;53.868;11.680;2023-06-19T08:46:29;10.43;;;9.33;;
8538;SDS011;4307;53.868;11.680;2023-06-19T08:48:56;14.20;;;9.33;;
8538;SDS011;4307;53.868;11.680;2023-06-19T08:51:24;21.60;;;10.10;;
8538;SDS011;4307;53.868;11.680;2023-06-19T08:53:54;11.20;;;9.33;;
8538;SDS011;4307;53.868;11.680;2023-06-19T08:56:24;11.37;;;9.33;;
8538;SDS011;4307;53.868;11.680;2023-06-19T08:58:51;11.83;;;10.63;;
8538;SDS011;4307;53.868;11.680;2023-06-19T09:01:18;14.77;;;10.60;;
8538;SDS011;4307;53.868;11.680;2023-06-19T09:03:45;11.17;;;9.90;;
8538;SDS011;4307;53.868;11.680;2023-06-19T09:06:14;10.90;;;9.80;;
8538;SDS011;4307;53.868;11.680;2023-06-19T09:08:43;11.73;;;9.47;;
8538;SDS011;4307;53.868;11.680;2023-06-19T09:11:11;11.63;;;9.97;;
8538;SDS011;4307;53.868;11.680;2023-06-19T09:13:38;11.07;;;9.97;;
8538;SDS011;4307;53.868;11.680;2023-06-19T09:16:05;11.17;;;9.97;;
8538;SDS011;4307;53.868;11.680;2023-06-19T09:18:42;11.47;;;10.27;;
8538;SDS011;4307;53.868;11.680;2023-06-19T09:21:14;11.80;;;10.20;;
8538;SDS011;4307;53.868;11.680;2023-06-19T09:23:42;10.53;;;9.53;;
8538;SDS011;4307;53.868;11.680;2023-06-19T09:26:09;12.77;;;9.40;;
8538;SDS011;4307;53.868;11.680;2023-06-19T09:28:40;12.47;;;10.00;;
8538;SDS011;4307;53.868;11.680;2023-06-19T09:31:08;11.60;;;10.40;;
8538;SDS011;4307;53.868;11.680;2023-06-19T09:33:35;11.80;;;10.50;;
8538;SDS011;4307;53.868;11.680;2023-06-19T09:36:03;11.27;;;10.07;;
8538;SDS011;4307;53.868;11.680;2023-06-19T09:38:31;10.77;;;9.53;;
8538;SDS011;4307;53.868;11.680;2023-06-19T09:41:01;12.00;;;10.73;;
8538;SDS011;4307;53.868;11.680;2023-06-19T09:43:30;11.97;;;9.93;;
8538;SDS011;4307;53.868;11.680;2023-06-19T09:46:02;11.73;;;10.63;;
8538;SDS011;4307;53.868;11.680;2023-06-19T09:48:31;11.23;;;10.13;;
8538;SDS011;4307;53.868;11.680;2023-06-19T09:51:00;11.07;;;10.03;;
8538;SDS011;4307;53.868;11.680;2023-06-19T09:53:34;13.90;;;10.33;;
8538;SDS011;4307;53.868;11.680;2023-06-19T09:56:04;10.43;;;9.40;;
8538;SDS011;4307;53.868;11.680;2023-06-19T09:58:30;11.80;;;10.70;;
8538;SDS011;4307;53.868;11.680;2023-06-19T10:00:58;11.00;;;9.90;;
8538;SDS011;4307;53.868;11.680;2023-06-19T10:03:31;11.33;;;10.33;;
8538;SDS011;4307;53.868;11.680;2023-06-19T10:05:58;12.03;;;10.83;;
8538;SDS011;4307;53.868;11.680;2023-06-19T10:08:27;10.77;;;9.87;;
8538;SDS011;4307;53.868;11.680;2023-06-19T10:10:55;12.17;;;10.80;;
8538;SDS011;4307;53.868;11.680;2023-06-19T10:13:30;11.70;;;10.50;;
8538;SDS011;4307;53.868;11.680;2023-06-19T10:15:58;11.03;;;10.00;;
8538;SDS011;4307;53.868;11.680;2023-06-19T10:18:25;11.17;;;10.13;;
8538;SDS011;4307;53.868;11.680;2023-06-19T10:20:53;11.47;;;10.23;;
8538;SDS011;4307;53.868;11.680;2023-06-19T10:23:20;12.17;;;10.83;;
8538;SDS011;4307;53.868;11.680;2023-06-19T10:25:49;10.70;;;9.60;;
8538;SDS011;4307;53.868;11.680;2023-06-19T10:28:22;11.30;;;10.17;;
8538;SDS011;4307;53.868;11.680;2023-06-19T10:30:51;13.20;;;9.77;;
8538;SDS011;4307;53.868;11.680;2023-06-19T10:33:19;10.90;;;9.80;;
8538;SDS011;4307;53.868;11.680;2023-06-19T10:35:46;11.30;;;9.87;;
8538;SDS011;4307;53.868;11.680;2023-06-19T10:38:14;10.60;;;9.60;;
8538;SDS011;4307;53.868;11.680;2023-06-19T10:40:41;11.80;;;10.07;;
8538;SDS011;4307;53.868;11.680;2023-06-19T10:43:09;10.60;;;9.70;;
8538;SDS011;4307;53.868;11.680;2023-06-19T10:45:37;11.30;;;10.20;;
8538;SDS011;4307;53.868;11.680;2023-06-19T10:48:04;10.87;;;9.87;;
8538;SDS011;4307;53.868;11.680;2023-06-19T10:50:33;10.90;;;9.90;;
8538;SDS011;4307;53.868;11.680;2023-06-19T10:53:03;11.23;;;10.13;;
8538;SDS011;4307;53.868;11.680;2023-06-19T10:55:30;13.00;;;9.87;;
8538;SDS011;4307;53.868;11.680;2023-06-19T10:57:57;10.80;;;9.80;;
8538;SDS011;4307;53.868;11.680;2023-06-19T11:00:24;10.53;;;9.60;;
8538;SDS011;4307;53.868;11.680;2023-06-19T11:02:53;10.43;;;9.37;;
8538;SDS011;4307;53.868;11.680;2023-06-19T11:05:21;10.50;;;9.53;;
8538;SDS011;4307;53.868;11.680;2023-06-19T11:07:52;11.00;;;9.90;;
8538;SDS011;4307;53.868;11.680;2023-06-19T11:10:20;9.33;;;8.43;;
8538;SDS011;4307;53.868;11.680;2023-06-19T11:12:48;10.20;;;9.30;;
8538;SDS011;4307;53.868;11.680;2023-06-19T11:15:15;10.17;;;9.17;;
8538;SDS011;4307;53.868;11.680;2023-06-19T11:17:42;9.80;;;8.83;;
8538;SDS011;4307;53.868;11.680;2023-06-19T11:20:11;11.00;;;9.90;;
8538;SDS011;4307;53.868;11.680;2023-06-19T11:22:38;9.60;;;8.23;;
8538;SDS011;4307;53.868;11.680;2023-06-19T11:25:06;9.43;;;8.53;;
8538;SDS011;4307;53.868;11.680;2023-06-19T11:27:36;9.53;;;8.63;;
8538;SDS011;4307;53.868;11.680;2023-06-19T11:30:05;9.83;;;8.83;;
8538;SDS011;4307;53.868;11.680;2023-06-19T11:32:33;9.37;;;8.37;;
8538;SDS011;4307;53.868;11.680;2023-06-19T11:35:06;9.20;;;8.30;;
8538;SDS011;4307;53.868;11.680;2023-06-19T11:37:39;8.97;;;8.17;;
8538;SDS011;4307;53.868;11.680;2023-06-19T11:40:06;8.43;;;7.67;;
8538;SDS011;4307;53.868;11.680;2023-06-19T11:42:51;9.17;;;8.37;;
8538;SDS011;4307;53.868;11.680;2023-06-19T11:45:19;10.80;;;8.43;;
8538;SDS011;4307;53.868;11.680;2023-06-19T11:47:46;9.07;;;8.13;;
8538;SDS011;4307;53.868;11.680;2023-06-19T11:50:14;11.43;;;8.60;;
8538;SDS011;4307;53.868;11.680;2023-06-19T11:52:43;8.87;;;7.97;;
8538;SDS011;4307;53.868;11.680;2023-06-19T11:55:10;9.70;;;8.77;;
8538;SDS011;4307;53.868;11.680;2023-06-19T11:57:38;9.30;;;8.30;;
8538;SDS011;4307;53.868;11.680;2023-06-19T12:00:11;8.80;;;7.90;;
8538;SDS011;4307;53.868;11.680;2023-06-19T12:02:39;8.27;;;7.57;;
8538;SDS011;4307;53.868;11.680;2023-06-19T12:05:06;8.23;;;7.43;;
8538;SDS011;4307;53.868;11.680;2023-06-19T12:07:34;8.50;;;7.70;;
8538;SDS011;4307;53.868;11.680;2023-06-19T12:10:02;8.20;;;7.47;;
8538;SDS011;4307;53.868;11.680;2023-06-19T12:12:30;8.40;;;7.60;;
8538;SDS011;4307;53.868;11.680;2023-06-19T12:14:56;8.70;;;7.73;;
8538;SDS011;4307;53.868;11.680;2023-06-19T12:17:23;8.43;;;7.27;;
8538;SDS011;4307;53.868;11.680;2023-06-19T12:19:50;9.50;;;7.70;;
8538;SDS011;4307;53.868;11.680;2023-06-19T12:22:18;9.83;;;7.83;;
8538;SDS011;4307;53.868;11.680;2023-06-19T12:24:45;8.33;;;7.63;;
8538;SDS011;4307;53.868;11.680;2023-06-19T12:27:13;8.33;;;7.63;;
8538;SDS011;4307;53.868;11.680;2023-06-19T12:29:40;9.13;;;8.17;;
8538;SDS011;4307;53.868;11.680;2023-06-19T12:32:07;8.40;;;7.60;;
8538;SDS011;4307;53.868;11.680;2023-06-19T12:34:33;8.13;;;7.30;;
8538;SDS011;4307;53.868;11.680;2023-06-19T12:37:00;8.10;;;7.23;;
8538;SDS011;4307;53.868;11.680;2023-06-19T12:39:27;7.90;;;7.20;;
8538;SDS011;4307;53.868;11.680;2023-06-19T12:41:54;8.03;;;7.13;;
8538;SDS011;4307;53.868;11.680;2023-06-19T12:44:22;8.50;;;6.77;;
8538;SDS011;4307;53.868;11.680;2023-06-19T12:46:49;8.33;;;7.47;;
8538;SDS011;4307;53.868;11.680;2023-06-19T12:49:16;7.47;;;6.80;;
8538;SDS011;4307;53.868;11.680;2023-06-19T12:51:43;8.30;;;7.50;;
8538;SDS011;4307;53.868;11.680;2023-06-19T12:54:09;8.17;;;7.37;;
8538;SDS011;4307;53.868;11.680;2023-06-19T12:56:36;7.90;;;7.07;;
8538;SDS011;4307;53.868;11.680;2023-06-19T12:59:03;8.50;;;7.60;;
8538;SDS011;4307;53.868;11.680;2023-06-19T13:01:31;7.70;;;7.00;;
8538;SDS011;4307;53.868;11.680;2023-06-19T13:03:57;8.73;;;7.73;;
8538;SDS011;4307;53.868;11.680;2023-06-19T13:06:24;8.60;;;7.80;;
8538;SDS011;4307;53.868;11.680;2023-06-19T13:08:51;8.60;;;7.73;;
8538;SDS011;4307;53.868;11.680;2023-06-19T13:11:18;7.97;;;7.17;;
8538;SDS011;4307;53.868;11.680;2023-06-19T13:13:44;8.40;;;7.70;;
8538;SDS011;4307;53.868;11.680;2023-06-19T13:16:11;7.70;;;7.10;;
8538;SDS011;4307;53.868;11.680;2023-06-19T13:18:39;8.53;;;7.73;;
8538;SDS011;4307;53.868;11.680;2023-06-19T13:21:06;7.60;;;7.00;;
8538;SDS011;4307;53.868;11.680;2023-06-19T13:23:32;7.97;;;7.17;;
8538;SDS011;4307;53.868;11.680;2023-06-19T13:25:59;7.93;;;7.23;;
8538;SDS011;4307;53.868;11.680;2023-06-19T13:28:26;8.80;;;7.40;;
8538;SDS011;4307;53.868;11.680;2023-06-19T13:30:53;7.83;;;7.13;;
8538;SDS011;4307;53.868;11.680;2023-06-19T13:33:19;8.03;;;7.23;;
8538;SDS011;4307;53.868;11.680;2023-06-19T13:35:48;8.20;;;7.40;;
8538;SDS011;4307;53.868;11.680;2023-06-19T13:38:14;7.90;;;7.10;;
8538;SDS011;4307;53.868;11.680;2023-06-19T13:40:42;8.80;;;7.57;;
8538;SDS011;4307;53.868;11.680;2023-06-19T13:43:09;8.40;;;7.60;;
8538;SDS011;4307;53.868;11.680;2023-06-19T13:45:35;8.23;;;7.40;;
8538;SDS011;4307;53.868;11.680;2023-06-19T13:48:03;9.67;;;8.37;;
8538;SDS011;4307;53.868;11.680;2023-06-19T13:50:30;8.43;;;7.63;;
8538;SDS011;4307;53.868;11.680;2023-06-19T13:52:59;9.13;;;8.17;;
8538;SDS011;4307;53.868;11.680;2023-06-19T13:55:27;9.10;;;8.07;;
8538;SDS011;4307;53.868;11.680;2023-06-19T13:57:53;9.17;;;8.23;;
8538;SDS011;4307;53.868;11.680;2023-06-19T14:00:20;9.33;;;8.53;;
8538;SDS011;4307;53.868;11.680;2023-06-19T14:02:47;9.07;;;8.27;;
8538;SDS011;4307;53.868;11.680;2023-06-19T14:05:14;9.27;;;8.47;;
8538;SDS011;4307;53.868;11.680;2023-06-19T14:07:41;10.33;;;8.90;;
8538;SDS011;4307;53.868;11.680;2023-06-19T14:10:10;10.30;;;7.90;;
8538;SDS011;4307;53.868;11.680;2023-06-19T14:12:36;9.43;;;8.53;;
8538;SDS011;4307;53.868;11.680;2023-06-19T14:15:05;9.23;;;8.37;;
8538;SDS011;4307;53.868;11.680;2023-06-19T14:17:32;9.43;;;8.63;;
8538;SDS011;4307;53.868;11.680;2023-06-19T14:19:59;9.37;;;8.50;;
8538;SDS011;4307;53.868;11.680;2023-06-19T14:22:26;10.27;;;8.30;;
8538;SDS011;4307;53.868;11.680;2023-06-19T14:24:52;9.33;;;8.53;;
8538;SDS011;4307;53.868;11.680;2023-06-19T14:27:25;10.97;;;8.90;;
8538;SDS011;4307;53.868;11.680;2023-06-19T14:29:53;9.57;;;8.57;;
8538;SDS011;4307;53.868;11.680;2023-06-19T14:32:20;9.60;;;8.70;;
8538;SDS011;4307;53.868;11.680;2023-06-19T14:34:47;9.27;;;8.37;;
8538;SDS011;4307;53.868;11.680;2023-06-19T14:37:14;11.17;;;8.80;;
8538;SDS011;4307;53.868;11.680;2023-06-19T14:39:41;9.27;;;8.53;;
8538;SDS011;4307;53.868;11.680;2023-06-19T14:42:08;9.90;;;9.00;;
8538;SDS011;4307;53.868;11.680;2023-06-19T14:44:37;10.07;;;8.93;;
8538;SDS011;4307;53.868;11.680;2023-06-19T14:47:04;12.30;;;9.20;;
8538;SDS011;4307;53.868;11.680;2023-06-19T14:49:31;9.37;;;8.40;;
8538;SDS011;4307;53.868;11.680;2023-06-19T14:51:58;9.80;;;8.87;;
8538;SDS011;4307;53.868;11.680;2023-06-19T14:54:25;9.93;;;9.03;;